Time;durP1;ratioP1;P1;durP2;ratioP2;P2;SDS_P1;SDS_P2;PMS_P1;PMS_P2;Temp;Humidity;BMP_temperature;BMP_pressure;BME280_temperature;BME280_humidity;BME280_pressure;Samples;Min_cycle;Max_cycle;Signal;HPM_P1;HPM_P2
2021/11/18 00:01:55;;;;;;;16.77;11.40;;;;;;;4.27;100.00;100209.25;5096648;28;20097;-82
2021/11/18 00:04:39;;;;;;;18.08;11.00;;;;;;;4.26;100.00;100213.59;5097564;28;20040;-82
2021/11/18 00:07:24;;;;;;;19.00;11.77;;;;;;;4.33;100.00;100223.13;5096609;28;20047;-82
2021/11/18 00:10:10;;;;;;;17.83;11.75;;;;;;;4.32;100.00;100218.81;5097216;28;20047;-83
2021/11/18 00:12:56;;;;;;;15.60;10.90;;;;;;;4.29;100.00;100215.31;5097148;28;20055;-82
2021/11/18 00:15:42;;;;;;;18.65;11.20;;;;;;;4.25;100.00;100210.97;5097223;28;20375;-82
2021/11/18 00:18:30;;;;;;;22.25;12.48;;;;;;;4.28;100.00;100218.78;5096338;28;20348;-82
2021/11/18 00:21:28;;;;;;;19.38;13.20;;;;;;;4.34;100.00;100219.69;5081907;28;20044;-82
2021/11/18 00:24:13;;;;;;;17.73;11.32;;;;;;;4.35;100.00;100223.13;5096870;28;20108;-82
2021/11/18 00:26:58;;;;;;;19.30;12.70;;;;;;;4.33;100.00;100223.13;5096995;28;20044;-82
2021/11/18 00:29:42;;;;;;;15.57;10.70;;;;;;;4.39;100.00;100230.09;5082077;28;20110;-82
2021/11/18 00:32:27;;;;;;;15.68;10.38;;;;;;;4.28;100.00;100213.59;5081807;28;20115;-82
2021/11/18 00:35:16;;;;;;;17.02;11.23;;;;;;;4.29;100.00;100226.59;5095909;28;20032;-82
2021/11/18 00:38:02;;;;;;;16.88;11.82;;;;;;;4.36;100.00;100222.31;5096581;28;20040;-83
2021/11/18 00:40:51;;;;;;;19.77;13.43;;;;;;;4.32;100.00;100225.72;5096609;28;20051;-82
2021/11/18 00:43:36;;;;;;;18.85;11.88;;;;;;;4.43;100.00;100226.66;5096162;28;20052;-82
2021/11/18 00:46:20;;;;;;;18.50;12.80;;;;;;;4.30;100.00;100222.25;5096013;28;20056;-83
2021/11/18 00:49:06;;;;;;;19.95;12.00;;;;;;;4.40;100.00;100229.25;5096418;28;20036;-82
2021/11/18 00:51:50;;;;;;;18.80;12.85;;;;;;;4.31;100.00;100216.19;5095710;28;20402;-82
2021/11/18 00:54:34;;;;;;;18.05;12.60;;;;;;;4.34;100.00;100227.47;5081438;28;20036;-82
2021/11/18 00:57:20;;;;;;;19.50;13.70;;;;;;;4.32;100.00;100228.31;5095668;28;20097;-83
2021/11/18 01:00:08;;;;;;;20.30;13.68;;;;;;;4.40;100.00;100232.69;5096239;28;20048;-83
2021/11/18 01:02:54;;;;;;;23.25;15.18;;;;;;;4.40;100.00;100232.69;5096415;28;20043;-83
2021/11/18 01:05:42;;;;;;;22.45;16.13;;;;;;;4.37;100.00;100235.25;5095596;28;20072;-82
2021/11/18 01:08:27;;;;;;;23.95;16.58;;;;;;;4.34;100.00;100232.66;5096224;28;20044;-82
2021/11/18 01:11:24;;;;;;;21.10;13.32;;;;;;;4.49;100.00;100238.81;5081306;28;20048;-82
2021/11/18 01:14:12;;;;;;;20.83;14.85;;;;;;;4.35;100.00;100241.28;5081206;28;20044;-82
2021/11/18 01:16:57;;;;;;;21.70;14.85;;;;;;;4.49;100.00;100255.25;5095531;28;20040;-84
2021/11/18 01:19:44;;;;;;;23.70;14.48;;;;;;;4.44;100.00;100255.19;5081785;28;20032;-82
2021/11/18 01:22:31;;;;;;;24.02;14.88;;;;;;;4.47;100.00;100249.16;5095353;28;20060;-82
2021/11/18 01:25:16;;;;;;;25.40;16.33;;;;;;;4.51;100.00;100255.25;5094787;28;20444;-84
2021/11/18 01:28:05;;;;;;;22.63;15.02;;;;;;;4.51;100.00;100250.91;5095280;28;20044;-83
2021/11/18 01:30:50;;;;;;;25.88;16.27;;;;;;;4.51;100.00;100252.66;5095538;28;20056;-83
2021/11/18 01:33:39;;;;;;;25.75;15.45;;;;;;;4.58;100.00;100265.69;5095202;28;20119;-83
2021/11/18 01:36:24;;;;;;;26.48;16.40;;;;;;;4.59;100.00;100262.22;5095448;28;20052;-82
2021/11/18 01:39:18;;;;;;;22.48;14.23;;;;;;;4.57;100.00;100263.94;5095145;28;20093;-82
2021/11/18 01:42:03;;;;;;;24.88;15.48;;;;;;;4.60;100.00;100269.13;5095345;28;20055;-83
2021/11/18 01:44:50;;;;;;;22.42;14.77;;;;;;;4.59;100.00;100261.34;5095229;28;20040;-83
2021/11/18 01:47:35;;;;;;;23.98;15.98;;;;;;;4.66;100.00;100268.31;5095117;28;20494;-82
2021/11/18 01:50:23;;;;;;;24.48;14.23;;;;;;;4.62;100.00;100269.16;5095141;28;20101;-82
2021/11/18 01:53:14;;;;;;;19.52;13.95;;;;;;;4.61;100.00;100273.47;5095076;28;20351;-80
2021/11/18 01:56:10;;;;;;;19.50;13.00;;;;;;;4.62;100.00;100275.22;5094928;28;20055;-82
2021/11/18 01:58:58;;;;;;;24.13;14.45;;;;;;;4.64;100.00;100270.03;5080318;28;20052;-82
2021/11/18 02:01:57;;;;;;;20.77;12.65;;;;;;;4.66;100.00;100274.38;5095173;28;20070;-82
2021/11/18 02:05:19;;;;;;;19.80;11.75;;;;;;;4.69;100.00;100282.19;5095566;28;20036;-82
2021/11/18 02:08:08;;;;;;;19.48;12.32;;;;;;;4.66;100.00;100276.97;5080980;28;20040;-82
2021/11/18 02:11:24;;;;;;;19.95;12.68;;;;;;;4.64;100.00;100278.66;5094909;28;20044;-82
2021/11/18 02:14:11;;;;;;;23.85;13.93;;;;;;;4.69;100.00;100291.69;5094867;28;20036;-82
2021/11/18 02:17:01;;;;;;;16.33;11.13;;;;;;;4.67;100.00;100283.03;5080761;28;20113;-82
2021/11/18 02:19:49;;;;;;;18.60;13.07;;;;;;;4.66;100.00;100292.53;5094970;28;20040;-82
2021/11/18 02:22:33;;;;;;;24.27;13.40;;;;;;;4.63;100.00;100281.28;5094948;28;20051;-82
2021/11/18 02:25:24;;;;;;;21.08;12.57;;;;;;;4.67;100.00;100286.47;5094782;28;20044;-82
2021/11/18 02:28:09;;;;;;;17.38;11.75;;;;;;;4.62;100.00;100295.13;5094803;28;20336;-82
2021/11/18 02:30:56;;;;;;;25.60;14.18;;;;;;;4.66;100.00;100295.13;5094987;28;20048;-82
2021/11/18 02:33:41;;;;;;;25.02;13.45;;;;;;;4.63;100.00;100289.91;5094702;28;20044;-82
2021/11/18 02:36:26;;;;;;;19.30;12.43;;;;;;;4.67;100.00;100294.25;5096072;28;20040;-82
2021/11/18 02:39:12;;;;;;;19.88;13.90;;;;;;;4.61;100.00;100298.53;5099219;28;20051;-83
2021/11/18 02:41:56;;;;;;;24.08;15.55;;;;;;;4.64;100.00;100303.75;5098155;28;20068;-82
2021/11/18 02:44:43;;;;;;;23.40;13.45;;;;;;;4.65;100.00;100301.19;5084026;28;20047;-80
2021/11/18 02:47:27;;;;;;;19.88;12.63;;;;;;;4.64;100.00;100304.63;5083835;28;20413;-82
2021/11/18 02:50:17;;;;;;;20.02;13.38;;;;;;;4.59;100.00;100300.28;5097981;28;20454;-82
2021/11/18 02:53:06;;;;;;;21.42;14.48;;;;;;;4.57;100.00;100310.63;5098351;28;20123;-82
2021/11/18 02:55:52;;;;;;;20.13;12.55;;;;;;;4.65;100.00;100311.56;5098069;28;20048;-82
2021/11/18 02:58:36;;;;;;;22.00;13.43;;;;;;;4.60;100.00;100317.56;5083516;28;20040;-82
2021/11/18 03:01:29;;;;;;;22.70;14.73;;;;;;;4.63;100.00;100315.88;5097837;28;20051;-82
2021/11/18 03:04:16;;;;;;;22.83;15.25;;;;;;;4.61;100.00;100314.09;5097782;28;20070;-82
2021/11/18 03:07:02;;;;;;;19.00;12.80;;;;;;;4.65;100.00;100321.09;5097736;28;20040;-82
2021/11/18 03:09:46;;;;;;;25.23;13.63;;;;;;;4.63;100.00;100320.19;5097731;28;20044;-82
2021/11/18 03:12:37;;;;;;;22.80;14.05;;;;;;;4.62;100.00;100323.66;5097774;28;20070;-82
2021/11/18 03:15:23;;;;;;;22.05;13.18;;;;;;;4.57;100.00;100308.03;5083226;28;20051;-82
2021/11/18 03:18:08;;;;;;;20.75;14.07;;;;;;;4.66;100.00;100322.81;5097523;28;20055;-83
2021/11/18 03:20:59;;;;;;;24.77;12.43;;;;;;;4.65;100.00;100321.94;5097607;28;20040;-80
2021/11/18 03:23:44;;;;;;;21.42;11.82;;;;;;;4.75;100.00;100320.28;5083129;28;20040;-82
2021/11/18 03:26:32;;;;;;;19.08;11.07;;;;;;;4.65;100.00;100318.50;5097399;28;20052;-82
2021/11/18 03:29:26;;;;;;;16.52;11.20;;;;;;;4.63;100.00;100322.78;5097335;28;20051;-82
2021/11/18 03:32:11;;;;;;;17.42;10.63;;;;;;;4.62;100.00;100327.09;5083327;28;20054;-83
2021/11/18 03:34:56;;;;;;;24.55;12.18;;;;;;;4.63;100.00;100322.78;5097319;28;20059;-82
2021/11/18 03:37:40;;;;;;;15.75;10.45;;;;;;;4.63;100.00;100322.78;5097002;28;20052;-82
2021/11/18 03:40:28;;;;;;;14.60;9.30;;;;;;;4.73;100.00;100331.50;5097110;28;20050;-82
2021/11/18 03:43:13;;;;;;;19.77;9.88;;;;;;;4.70;100.00;100327.16;5097955;28;20044;-82
2021/11/18 03:45:58;;;;;;;16.23;9.23;;;;;;;4.68;100.00;100327.16;5097272;28;20101;-83
2021/11/18 03:48:44;;;;;;;19.85;10.70;;;;;;;4.64;100.00;100317.59;5096645;28;20036;-82
2021/11/18 03:51:29;;;;;;;17.00;10.07;;;;;;;4.55;100.00;100309.78;5097701;28;20055;-82
2021/11/18 03:54:15;;;;;;;17.77;11.18;;;;;;;4.66;100.00;100317.63;5096845;28;20360;-83
2021/11/18 03:57:01;;;;;;;17.98;10.38;;;;;;;4.61;100.00;100308.91;5082700;28;20036;-84
2021/11/18 03:59:48;;;;;;;23.80;14.65;;;;;;;4.64;100.00;100321.91;5096721;28;20047;-82
2021/11/18 04:02:37;;;;;;;14.40;10.25;;;;;;;4.63;100.00;100321.06;5096609;28;20352;-83
2021/11/18 04:05:23;;;;;;;15.07;10.00;;;;;;;4.63;100.00;100321.06;5082287;28;20032;-83
2021/11/18 04:08:08;;;;;;;15.82;9.88;;;;;;;4.59;100.00;100315.84;5096603;28;20048;-82
2021/11/18 04:10:55;;;;;;;20.08;11.48;;;;;;;4.62;100.00;100324.53;5096535;28;20036;-82
2021/11/18 04:13:40;;;;;;;22.17;12.30;;;;;;;4.63;100.00;100322.78;5096527;28;20055;-82
2021/11/18 04:16:26;;;;;;;16.63;9.73;;;;;;;4.62;100.00;100324.53;5096392;28;20372;-83
2021/11/18 04:19:13;;;;;;;17.65;10.43;;;;;;;4.61;100.00;100322.75;5096308;28;20043;-83
2021/11/18 04:22:00;;;;;;;14.68;8.82;;;;;;;4.61;100.00;100325.34;5082020;28;20043;-80
2021/11/18 04:24:46;;;;;;;15.65;9.90;;;;;;;4.60;100.00;100323.63;5096201;28;20451;-82
2021/11/18 04:27:31;;;;;;;18.27;9.30;;;;;;;4.66;100.00;100326.28;5096238;28;20134;-82
2021/11/18 04:30:20;;;;;;;19.75;10.43;;;;;;;4.60;100.00;100326.22;5096114;28;20036;-82
2021/11/18 04:33:24;;;;;;;17.77;9.95;;;;;;;4.66;100.00;100323.66;5084173;28;20073;-83
2021/11/18 04:36:12;;;;;;;17.45;10.77;;;;;;;4.67;100.00;100322.81;5096032;28;20052;-82
2021/11/18 04:38:57;;;;;;;22.08;10.50;;;;;;;4.62;100.00;100310.69;5096287;28;20127;-81
2021/11/18 04:41:42;;;;;;;18.45;10.90;;;;;;;4.63;100.00;100317.59;5096092;28;20039;-82
2021/11/18 04:44:27;;;;;;;19.80;10.85;;;;;;;4.67;100.00;100324.53;5095914;28;20047;-82
2021/11/18 04:47:16;;;;;;;18.27;9.50;;;;;;;4.69;100.00;100326.28;5096522;28;20093;-82
2021/11/18 04:50:04;;;;;;;18.50;10.30;;;;;;;4.77;100.00;100321.13;5095980;28;20056;-82
2021/11/18 04:52:49;;;;;;;21.60;10.70;;;;;;;4.66;100.00;100322.81;5096622;28;20043;-82
2021/11/18 04:55:37;;;;;;;20.33;12.27;;;;;;;4.74;100.00;100328.03;5095977;28;20044;-81
2021/11/18 04:58:22;;;;;;;18.63;9.98;;;;;;;4.78;100.00;100330.69;5094936;28;20048;-82
2021/11/18 05:01:08;;;;;;;19.73;9.50;;;;;;;4.80;100.00;100325.50;5095554;28;20435;-82
2021/11/18 05:03:53;;;;;;;21.25;10.10;;;;;;;4.78;100.00;100329.81;5095592;28;20036;-81
2021/11/18 05:06:39;;;;;;;15.93;9.63;;;;;;;4.82;100.00;100334.16;5095820;28;20108;-81
2021/11/18 05:09:24;;;;;;;18.35;8.93;;;;;;;4.83;100.00;100335.91;5095434;28;20122;-81
2021/11/18 05:12:10;;;;;;;22.98;10.18;;;;;;;4.78;100.00;100332.41;5081479;28;20119;-82
2021/11/18 05:14:54;;;;;;;15.85;8.98;;;;;;;4.85;100.00;100341.97;5095708;28;20062;-81
2021/11/18 05:17:39;;;;;;;16.17;9.38;;;;;;;4.83;100.00;100346.28;5095500;28;20044;-81
2021/11/18 05:20:24;;;;;;;26.73;13.95;;;;;;;4.93;100.00;100350.66;5096078;28;20036;-83
2021/11/18 05:23:11;;;;;;;36.40;18.95;;;;;;;4.88;100.00;100349.78;5096009;28;20340;-81
2021/11/18 05:26:08;;;;;;;21.58;11.65;;;;;;;4.87;100.00;100345.44;5095225;28;20428;-82
2021/11/18 05:28:53;;;;;;;24.85;9.63;;;;;;;4.83;100.00;100346.28;5081153;28;20040;-82
2021/11/18 05:31:38;;;;;;;15.95;9.70;;;;;;;4.85;100.00;100360.16;5095249;28;20432;-82
2021/11/18 05:34:32;;;;;;;17.23;8.98;;;;;;;4.88;100.00;100358.44;5095538;28;20052;-83
2021/11/18 05:37:17;;;;;;;19.42;10.05;;;;;;;4.88;100.00;100361.03;5095186;28;20448;-82
2021/11/18 05:40:04;;;;;;;15.10;8.45;;;;;;;4.87;100.00;100363.59;5095131;28;20416;-82
2021/11/18 05:42:50;;;;;;;15.63;8.73;;;;;;;4.80;100.00;100362.69;5095060;28;20040;-82
2021/11/18 05:45:37;;;;;;;22.73;9.35;;;;;;;4.86;100.00;100364.47;5095127;28;20094;-80
2021/11/18 05:48:28;;;;;;;16.75;8.43;;;;;;;4.84;100.00;100354.09;5095183;28;20043;-82
2021/11/18 05:51:14;;;;;;;20.77;8.35;;;;;;;4.83;100.00;100362.72;5095135;28;20039;-83
2021/11/18 05:53:59;;;;;;;15.40;7.88;;;;;;;4.85;100.00;100370.53;5095802;28;20047;-82
2021/11/18 05:56:43;;;;;;;20.33;8.45;;;;;;;4.83;100.00;100357.53;5095242;28;20040;-82
2021/11/18 05:59:28;;;;;;;21.83;8.98;;;;;;;4.84;100.00;100361.88;5094900;28;20048;-82
2021/11/18 06:02:14;;;;;;;21.35;8.27;;;;;;;4.82;100.00;100362.72;5080726;28;20119;-82
2021/11/18 06:05:01;;;;;;;18.67;9.13;;;;;;;4.81;100.00;100368.75;5095211;28;20075;-82
2021/11/18 06:07:45;;;;;;;18.13;8.30;;;;;;;4.79;100.00;100366.16;5094955;28;20040;-85
2021/11/18 06:10:32;;;;;;;18.08;8.00;;;;;;;4.81;100.00;100364.44;5096628;28;20047;-82
2021/11/18 06:13:18;;;;;;;18.33;9.35;;;;;;;4.84;100.00;100376.56;5098788;28;20040;-82
2021/11/18 06:16:04;;;;;;;15.25;8.32;;;;;;;4.86;100.00;100374.84;5098696;28;20051;-82
2021/11/18 06:18:48;;;;;;;15.02;7.82;;;;;;;4.82;100.00;100386.94;5098756;28;20044;-82
2021/11/18 06:21:38;;;;;;;18.48;7.32;;;;;;;4.88;100.00;100384.41;5098383;28;20489;-82
2021/11/18 06:24:24;;;;;;;16.15;7.07;;;;;;;4.90;100.00;100389.59;5097887;28;20067;-82
2021/11/18 06:27:10;;;;;;;20.17;7.22;;;;;;;4.83;100.00;100380.88;5070314;28;20056;-75
2021/11/18 06:29:55;;;;;;;17.75;7.10;;;;;;;4.82;100.00;100383.47;5098428;28;20048;-75
2021/11/18 06:32:41;;;;;;;15.95;7.45;;;;;;;4.81;100.00;100384.31;5097421;28;20047;-76
2021/11/18 06:35:26;;;;;;;14.20;6.80;;;;;;;4.80;100.00;100387.78;5082365;28;20044;-76
2021/11/18 06:38:12;;;;;;;13.75;7.35;;;;;;;4.75;100.00;100390.34;5098306;28;20051;-76
2021/11/18 06:40:57;;;;;;;20.40;7.88;;;;;;;4.76;100.00;100386.91;5097198;28;20040;-76
2021/11/18 06:43:44;;;;;;;16.15;6.55;;;;;;;4.76;100.00;100399.00;5096995;28;20040;-76
2021/11/18 06:46:33;;;;;;;14.20;6.90;;;;;;;4.76;100.00;100401.59;5082610;28;20052;-76
2021/11/18 06:49:18;;;;;;;16.60;7.00;;;;;;;4.77;100.00;100401.59;5096292;28;20040;-76
2021/11/18 06:52:05;;;;;;;17.15;6.90;;;;;;;4.76;100.00;100410.25;5096134;28;20054;-76
2021/11/18 06:54:50;;;;;;;18.95;7.07;;;;;;;4.81;100.00;100408.56;5096850;28;20040;-76
2021/11/18 06:57:36;;;;;;;15.23;6.65;;;;;;;4.81;100.00;100403.38;5096106;28;20434;-76
2021/11/18 07:00:21;;;;;;;16.17;7.05;;;;;;;4.78;100.00;100407.69;5095876;28;20052;-76
2021/11/18 07:03:08;;;;;;;17.83;8.30;;;;;;;4.75;100.00;100407.66;5096701;28;20130;-76
2021/11/18 07:05:53;;;;;;;17.38;7.15;;;;;;;4.77;100.00;100419.75;5097850;28;20040;-76
2021/11/18 07:08:38;;;;;;;19.05;7.88;;;;;;;4.85;100.00;100417.25;5094053;28;20205;-76
2021/11/18 07:11:25;;;;;;;14.57;7.15;;;;;;;4.87;100.00;100413.78;5081750;28;20493;-76
2021/11/18 07:14:12;;;;;;;15.27;7.10;;;;;;;4.90;100.00;100406.03;5095941;28;20352;-76
2021/11/18 07:16:57;;;;;;;12.23;5.97;;;;;;;4.92;100.00;100393.94;5097199;28;20058;-76
2021/11/18 07:19:41;;;;;;;16.33;6.78;;;;;;;5.00;100.00;100406.97;5097860;28;20056;-76
2021/11/18 07:22:28;;;;;;;17.15;7.90;;;;;;;5.06;100.00;100413.94;5096641;28;20040;-76
2021/11/18 07:25:25;;;;;;;18.55;8.30;;;;;;;5.06;100.00;100424.31;5097467;28;20040;-76
2021/11/18 07:28:13;;;;;;;16.08;7.53;;;;;;;5.09;100.00;100414.81;5097391;28;20036;-76
2021/11/18 07:31:00;;;;;;;18.20;7.78;;;;;;;5.12;100.00;100409.66;5096394;28;20378;-76
2021/11/18 07:33:46;;;;;;;19.20;7.38;;;;;;;5.15;100.00;100414.00;5095361;28;20395;-76
2021/11/18 07:36:31;;;;;;;20.63;6.97;;;;;;;5.24;100.00;100419.25;5081348;28;20068;-74
2021/11/18 07:39:21;;;;;;;18.48;7.90;;;;;;;5.23;100.00;100414.03;5095516;28;20036;-76
2021/11/18 07:42:07;;;;;;;19.63;8.23;;;;;;;5.33;100.00;100416.72;5095393;28;20051;-74
2021/11/18 07:45:14;;;;;;;20.73;7.88;;;;;;;5.39;100.00;100416.75;5096076;28;20044;-74
2021/11/18 07:48:31;;;;;;;16.55;7.22;;;;;;;5.48;100.00;100426.31;5071305;28;20147;-74
2021/11/18 07:51:20;;;;;;;16.80;6.97;;;;;;;5.49;100.00;100422.88;5095072;28;20051;-74
2021/11/18 07:54:06;;;;;;;13.93;6.30;;;;;;;5.62;100.00;100434.16;5095821;28;20044;-74
2021/11/18 07:56:52;;;;;;;16.70;7.05;;;;;;;5.65;100.00;100421.19;5081185;28;20056;-74
2021/11/18 07:59:37;;;;;;;14.23;6.85;;;;;;;5.67;100.00;100423.81;5094788;28;20378;-74
2021/11/18 08:02:22;;;;;;;18.02;9.15;;;;;;;5.69;100.00;100419.47;5094695;28;20040;-74
2021/11/18 08:05:08;;;;;;;31.00;17.52;;;;;;;5.87;100.00;100427.38;5096494;28;20063;-74
2021/11/18 08:07:52;;;;;;;108.93;79.70;;;;;;;5.85;100.00;100437.78;5096780;28;20036;-74
2021/11/18 08:10:37;;;;;;;224.00;146.95;;;;;;;5.94;100.00;100457.75;5097070;28;20040;-75
2021/11/18 08:13:22;;;;;;;58.13;38.25;;;;;;;6.00;100.00;100442.19;5096402;28;20040;-74
2021/11/18 08:16:07;;;;;;;157.13;76.45;;;;;;;6.05;100.00;100456.09;5096246;28;20040;-74
2021/11/18 08:18:52;;;;;;;64.15;29.30;;;;;;;6.15;100.00;100456.13;5096219;28;20051;-74
2021/11/18 08:21:39;;;;;;;97.93;61.80;;;;;;;6.11;100.00;100459.53;5096621;28;20048;-74
2021/11/18 08:24:23;;;;;;;70.28;34.42;;;;;;;6.13;100.00;100473.44;5081937;28;20044;-74
2021/11/18 08:27:10;;;;;;;38.13;22.38;;;;;;;6.15;100.00;100469.97;5095938;28;20044;-74
2021/11/18 08:29:56;;;;;;;16.48;7.50;;;;;;;6.15;100.00;100467.38;5095871;28;20086;-74
2021/11/18 08:32:44;;;;;;;22.17;11.07;;;;;;;6.14;100.00;100475.16;5095739;28;20462;-74
2021/11/18 08:35:37;;;;;;;20.58;8.75;;;;;;;6.08;100.00;100471.69;5095819;28;20055;-74
2021/11/18 08:38:23;;;;;;;12.13;6.97;;;;;;;6.08;100.00;100478.63;5095829;28;20036;-74
2021/11/18 08:41:11;;;;;;;38.70;17.33;;;;;;;6.09;100.00;100485.56;5096319;28;20328;-75
2021/11/18 08:43:56;;;;;;;40.90;17.35;;;;;;;6.15;100.00;100489.94;5095811;28;20333;-74
2021/11/18 08:46:43;;;;;;;109.60;44.90;;;;;;;6.10;100.00;100497.69;5095876;28;20485;-76
2021/11/18 08:49:29;;;;;;;43.90;18.00;;;;;;;6.04;100.00;100500.28;5096345;28;20056;-74
2021/11/18 08:52:17;;;;;;;23.42;11.02;;;;;;;5.99;100.00;100508.06;5096141;28;20047;-74
2021/11/18 08:55:15;;;;;;;12.65;6.35;;;;;;;6.00;100.00;100528.00;5095852;28;20067;-76
2021/11/18 08:58:01;;;;;;;;;;;;;;;5.83;100.00;100532.22;5096349;28;20055;-76
2021/11/18 09:01:14;;;;;;;69.55;27.90;;;;;;;5.93;100.00;100531.44;5096246;28;19920;-76
2021/11/18 09:04:06;;;;;;;57.28;24.83;;;;;;;5.88;100.00;100520.09;5081918;28;20052;-76
2021/11/18 09:06:53;;;;;;;32.05;13.88;;;;;;;5.97;100.00;100524.50;5096346;28;20048;-76
2021/11/18 09:09:37;;;;;;;17.27;7.10;;;;;;;6.12;100.00;100529.78;5095551;28;20040;-76
2021/11/18 09:12:25;;;;;;;22.48;10.35;;;;;;;6.12;100.00;100527.19;5095726;28;20420;-75
2021/11/18 09:15:12;;;;;;;23.58;13.30;;;;;;;6.03;100.00;100524.53;5096132;28;20043;-75
2021/11/18 09:17:58;;;;;;;26.05;14.68;;;;;;;6.22;100.00;100525.50;5096586;28;20032;-75
2021/11/18 09:21:03;;;;;;;53.17;10.52;;;;;;;6.18;100.00;100518.56;5096740;28;20044;-76
2021/11/18 09:23:57;;;;;;;22.10;8.05;;;;;;;6.14;100.00;100519.38;5095695;28;20097;-76
2021/11/18 09:26:46;;;;;;;19.77;9.95;;;;;;;6.21;100.00;100518.56;5095399;28;20059;-76
2021/11/18 09:29:30;;;;;;;20.27;10.15;;;;;;;6.23;100.00;100515.09;5095977;28;20089;-76
2021/11/18 09:32:34;;;;;;;16.73;9.52;;;;;;;6.26;100.00;100520.31;5083513;28;20052;-76
2021/11/18 09:35:34;;;;;;;16.33;7.68;;;;;;;6.28;100.00;100520.31;5095314;28;20040;-76
2021/11/18 09:38:21;;;;;;;11.77;6.22;;;;;;;6.24;100.00;100519.44;5095190;28;20052;-76
2021/11/18 09:41:26;;;;;;;12.75;6.25;;;;;;;6.33;100.00;100516.00;5095970;28;20432;-75
2021/11/18 09:44:48;;;;;;;18.38;6.28;;;;;;;6.35;100.00;100505.59;5095290;28;20145;-76
2021/11/18 09:47:51;;;;;;;;;;;;;;;6.45;100.00;100500.41;5100113;28;20032;-76
2021/11/18 09:50:46;;;;;;;13.30;7.13;;;;;;;6.64;100.00;100487.47;5099357;28;20240;-76
2021/11/18 09:54:01;;;;;;;10.50;6.05;;;;;;;6.96;100.00;100490.97;5099429;28;20055;-76
2021/11/18 09:57:20;;;;;;;17.63;9.88;;;;;;;7.19;99.48;100471.88;5099926;28;20047;-75
2021/11/18 10:00:50;;;;;;;11.57;5.50;;;;;;;7.35;97.92;100473.59;5065290;28;20059;-76
2021/11/18 10:03:49;;;;;;;35.50;14.20;;;;;;;7.41;97.10;100478.78;5050127;28;20056;-76
2021/11/18 10:06:39;;;;;;;22.27;9.38;;;;;;;7.67;95.23;100483.94;5070686;28;20139;-74
2021/11/18 10:09:30;;;;;;;13.10;4.63;;;;;;;7.38;95.62;100484.00;5099201;28;20097;-74
2021/11/18 10:12:26;;;;;;;10.57;5.75;;;;;;;7.40;96.01;100490.06;5084450;28;20492;-76
2021/11/18 10:15:19;;;;;;;10.70;4.47;;;;;;;7.50;95.86;100483.09;5098593;28;20040;-76
2021/11/18 10:18:16;;;;;;;13.20;4.80;;;;;;;7.39;95.70;100483.13;5098643;28;20495;-76
2021/11/18 10:21:09;;;;;;;14.02;4.25;;;;;;;7.36;95.59;100493.56;5098910;28;20558;-76
2021/11/18 10:24:06;;;;;;;17.48;5.72;;;;;;;7.27;95.55;100490.94;5097265;28;20098;-75
2021/11/18 10:26:55;;;;;;;13.40;5.50;;;;;;;7.33;96.46;100498.75;5097813;28;20048;-74
2021/11/18 10:29:59;;;;;;;12.73;3.90;;;;;;;7.31;95.93;100486.59;5096547;28;20060;-75
2021/11/18 10:32:58;;;;;;;12.43;4.20;;;;;;;7.28;95.89;100481.38;5097264;28;20428;-76
2021/11/18 10:36:08;;;;;;;10.70;5.82;;;;;;;7.19;96.44;100483.16;5097224;28;20119;-75
2021/11/18 10:39:03;;;;;;;17.75;6.60;;;;;;;7.23;96.10;100470.97;5097192;28;20039;-74
2021/11/18 10:41:56;;;;;;;11.55;4.38;;;;;;;7.19;95.47;100475.34;5097051;28;20036;-74
2021/11/18 10:44:54;;;;;;;12.25;4.07;;;;;;;7.34;95.79;100476.16;5098772;28;20040;-75
2021/11/18 10:47:55;;;;;;;14.88;3.67;;;;;;;7.59;94.74;100477.00;5083907;28;20051;-76
2021/11/18 10:50:53;;;;;;;12.20;3.13;;;;;;;7.63;94.69;100491.75;5098153;28;20043;-75
2021/11/18 10:53:50;;;;;;;12.07;5.53;;;;;;;7.44;94.81;100478.78;5098654;28;20329;-76
2021/11/18 10:56:40;;;;;;;23.95;6.13;;;;;;;7.73;93.97;100488.25;5082841;28;20040;-75
2021/11/18 10:59:37;;;;;;;13.23;4.75;;;;;;;8.00;92.65;100484.72;5098673;28;20059;-75
2021/11/18 11:02:26;;;;;;;15.65;6.28;;;;;;;7.84;93.53;100491.72;5098430;28;20044;-75
2021/11/18 11:05:39;;;;;;;11.07;3.55;;;;;;;7.80;93.28;100494.31;5098217;28;20047;-75
2021/11/18 11:08:31;;;;;;;12.20;3.33;;;;;;;7.64;94.14;100498.75;5097888;28;20432;-76
2021/11/18 11:11:24;;;;;;;18.15;3.80;;;;;;;7.39;94.66;100483.13;5097874;28;20063;-76
2021/11/18 11:14:46;;;;;;;9.27;3.28;;;;;;;7.54;94.45;100495.28;5098517;28;20071;-76
2021/11/18 11:17:55;;;;;;;16.67;5.85;;;;;;;7.47;95.25;100497.03;5083732;28;20044;-75
2021/11/18 11:20:59;;;;;;;10.85;4.50;;;;;;;7.34;95.37;100497.03;5097663;28;20044;-76
2021/11/18 11:23:55;;;;;;;17.40;6.97;;;;;;;7.93;93.25;100491.69;5083489;28;20040;-76
2021/11/18 11:27:15;;;;;;;21.25;8.32;;;;;;;7.90;94.18;100499.53;5097863;28;20040;-76
2021/11/18 11:30:21;;;;;;;21.10;8.57;;;;;;;7.97;94.38;100503.84;5098689;28;20044;-76
2021/11/18 11:33:23;;;;;;;15.32;6.22;;;;;;;7.66;95.03;100489.16;5098488;28;20108;-75
2021/11/18 11:36:46;;;;;;;12.23;3.55;;;;;;;7.57;96.00;100497.00;5098484;28;20413;-75
2021/11/18 11:39:57;;;;;;;13.52;5.00;;;;;;;7.71;95.74;100482.19;5067601;28;20056;-75
2021/11/18 11:43:07;;;;;;;11.57;3.20;;;;;;;7.74;94.77;100487.41;5097776;28;20052;-75
2021/11/18 11:45:54;;;;;;;10.65;3.75;;;;;;;7.98;94.26;100476.00;5097669;28;20048;-76
2021/11/18 11:48:44;;;;;;;11.45;3.22;;;;;;;7.70;95.01;100467.41;5098261;28;20044;-75
2021/11/18 11:51:28;;;;;;;11.85;3.10;;;;;;;7.90;95.50;100459.53;5097646;28;20337;-75
2021/11/18 11:54:57;;;;;;;13.38;3.80;;;;;;;8.15;94.84;100463.75;5097095;28;20369;-76
2021/11/18 11:58:05;;;;;;;16.10;3.58;;;;;;;7.87;94.92;100457.81;5063262;28;20060;-75
2021/11/18 12:01:19;;;;;;;18.42;4.28;;;;;;;8.02;94.19;100453.38;5098042;28;20093;-75
2021/11/18 12:04:38;;;;;;;10.18;2.72;;;;;;;8.01;94.42;100444.69;5096743;28;20044;-76
2021/11/18 12:07:31;;;;;;;7.32;2.65;;;;;;;7.99;94.69;100441.22;5097353;28;20093;-75
2021/11/18 12:10:33;;;;;;;12.85;3.20;;;;;;;7.98;93.75;100439.50;5096537;28;20428;-76
2021/11/18 12:13:46;;;;;;;9.88;3.67;;;;;;;8.18;92.89;100439.41;5097525;28;20044;-76
2021/11/18 12:16:35;;;;;;;11.35;3.20;;;;;;;8.13;93.39;100442.03;5096787;28;20036;-76
2021/11/18 12:19:30;;;;;;;11.65;2.30;;;;;;;7.95;94.94;100437.75;5097006;28;20040;-76
2021/11/18 12:22:32;;;;;;;13.70;5.18;;;;;;;8.02;94.92;100436.00;5096812;28;20317;-76
2021/11/18 12:26:01;;;;;;;12.65;3.15;;;;;;;7.87;94.92;100438.69;5096694;28;20123;-76
2021/11/18 12:29:16;;;;;;;14.68;5.13;;;;;;;7.86;95.83;100436.94;5096662;28;20040;-76
2021/11/18 12:32:09;;;;;;;11.48;4.80;;;;;;;7.68;96.24;100440.50;5096989;28;20044;-75
2021/11/18 12:34:53;;;;;;;;;;;;;;;7.76;96.05;100433.50;5082314;28;20040;-76
2021/11/18 12:37:44;;;;;;;19.30;5.63;;;;;;;7.75;95.65;100417.88;5096628;28;19928;-76
2021/11/18 12:40:41;;;;;;;15.25;5.57;;;;;;;7.84;96.00;100418.69;5096428;28;20421;-73
2021/11/18 12:43:44;;;;;;;13.48;3.53;;;;;;;7.90;94.06;100413.44;5096200;28;20044;-76
2021/11/18 12:46:48;;;;;;;18.33;5.82;;;;;;;8.02;94.35;100417.72;5096694;28;20047;-76
2021/11/18 12:49:47;;;;;;;23.63;9.15;;;;;;;8.03;94.06;100410.78;5095984;28;20040;-74
2021/11/18 12:52:36;;;;;;;14.55;4.70;;;;;;;8.09;93.94;100413.34;5095677;28;20051;-74
2021/11/18 12:55:37;;;;;;;13.00;3.72;;;;;;;8.14;93.95;100414.19;5096662;28;20044;-75
2021/11/18 12:58:24;;;;;;;14.05;4.80;;;;;;;8.22;94.33;100398.47;5096201;28;20056;-74
2021/11/18 13:01:20;;;;;;;15.10;3.53;;;;;;;8.16;94.75;100395.06;5096455;28;20078;-75
2021/11/18 13:04:05;;;;;;;14.13;2.65;;;;;;;8.24;93.58;100387.16;5096136;28;20040;-75
2021/11/18 13:06:51;;;;;;;11.57;3.63;;;;;;;8.15;93.19;100384.59;5096893;28;20101;-76